Time;durP1;ratioP1;P1;durP2;ratioP2;P2;SDS_P1;SDS_P2;PMS_P1;PMS_P2;Temp;Humidity;BMP_temperature;BMP_pressure;BME280_temperature;BME280_humidity;BME280_pressure;Samples;Min_cycle;Max_cycle;Signal;HPM_P1;HPM_P2
2021/06/21 00:00:12;;;;;;;3.63;1.23;;;15.10;90.40;;;;;;5091225;28;20176;-51
2021/06/21 00:02:40;;;;;;;5.32;1.58;;;15.10;90.10;;;;;;5091606;28;20351;-51
2021/06/21 00:05:09;;;;;;;2.88;1.30;;;15.10;90.10;;;;;;5091540;28;20028;-52
2021/06/21 00:07:36;;;;;;;1.60;1.00;;;15.10;90.30;;;;;;5091839;28;20474;-57
2021/06/21 00:10:06;;;;;;;3.67;1.13;;;15.20;90.50;;;;;;5092041;28;20384;-51
2021/06/21 00:12:34;;;;;;;4.55;1.15;;;15.20;90.60;;;;;;5089693;28;20445;-55
2021/06/21 00:15:03;;;;;;;6.25;1.90;;;15.30;90.30;;;;;;5091560;28;20016;-50
2021/06/21 00:17:30;;;;;;;4.40;1.80;;;15.40;90.40;;;;;;5091944;28;20081;-57
2021/06/21 00:19:57;;;;;;;3.60;1.20;;;15.50;90.70;;;;;;5091317;28;20035;-51
2021/06/21 00:22:24;;;;;;;3.40;1.40;;;15.60;90.70;;;;;;5090093;28;20063;-53
2021/06/21 00:24:52;;;;;;;2.53;1.00;;;15.80;90.10;;;;;;5091604;28;20119;-51
2021/06/21 00:27:19;;;;;;;1.90;0.98;;;16.00;89.30;;;;;;5091609;28;20056;-55
2021/06/21 00:29:47;;;;;;;3.33;1.27;;;16.10;89.10;;;;;;5091655;28;20031;-52
2021/06/21 00:32:15;;;;;;;9.82;1.58;;;16.30;88.10;;;;;;5091518;28;20372;-51
2021/06/21 00:34:42;;;;;;;4.22;1.30;;;16.50;88.10;;;;;;5090063;28;20070;-52
2021/06/21 00:37:09;;;;;;;4.47;1.40;;;16.60;87.50;;;;;;5091024;28;20040;-49
2021/06/21 00:39:37;;;;;;;6.32;1.50;;;16.80;85.10;;;;;;5091515;28;20035;-51
2021/06/21 00:42:05;;;;;;;2.97;1.60;;;16.80;84.40;;;;;;5091808;28;20118;-53
2021/06/21 00:44:32;;;;;;;3.05;1.25;;;16.80;85.00;;;;;;5095668;28;20475;-51
2021/06/21 00:46:59;;;;;;;1.58;0.75;;;16.80;84.60;;;;;;5095525;28;20016;-49
2021/06/21 00:49:27;;;;;;;4.78;1.40;;;16.80;84.50;;;;;;5094019;28;20025;-47
2021/06/21 00:51:56;;;;;;;3.22;1.33;;;16.80;85.90;;;;;;5094232;28;20042;-52
2021/06/21 00:54:24;;;;;;;4.97;1.40;;;16.90;86.10;;;;;;5095639;28;20042;-46
2021/06/21 00:56:52;;;;;;;8.98;2.70;;;17.00;85.60;;;;;;5093839;28;20035;-55
2021/06/21 00:59:20;;;;;;;5.13;1.27;;;17.10;85.40;;;;;;5095715;28;20115;-52
2021/06/21 01:01:48;;;;;;;8.27;1.67;;;17.10;83.60;;;;;;5095392;28;20132;-48
2021/06/21 01:04:15;;;;;;;2.15;0.93;;;17.10;83.60;;;;;;5095113;28;20016;-51
2021/06/21 01:06:42;;;;;;;7.55;1.80;;;17.10;84.00;;;;;;5084725;28;20375;-55
2021/06/21 01:09:10;;;;;;;3.50;1.20;;;17.20;83.40;;;;;;5094686;28;20107;-51
2021/06/21 01:11:50;;;;;;;3.00;1.15;;;17.10;82.60;;;;;;5095108;28;20036;-53
2021/06/21 01:14:42;;;;;;;3.47;1.10;;;17.10;83.20;;;;;;5085254;28;20028;-51
2021/06/21 01:17:23;;;;;;;2.55;0.80;;;17.20;84.40;;;;;;5095357;28;20024;-51
2021/06/21 01:20:18;;;;;;;2.40;0.93;;;17.20;83.90;;;;;;5094887;28;20016;-48
2021/06/21 01:23:10;;;;;;;2.70;1.05;;;17.30;84.20;;;;;;5094886;28;20100;-54
2021/06/21 01:25:57;;;;;;;2.10;1.02;;;17.50;84.00;;;;;;5092855;28;20039;-52
2021/06/21 01:28:34;;;;;;;5.00;1.15;;;17.60;83.80;;;;;;5094831;28;20052;-52
2021/06/21 01:31:20;;;;;;;5.65;1.50;;;17.80;81.40;;;;;;5094727;28;20509;-53
2021/06/21 01:33:49;;;;;;;6.05;1.45;;;17.80;82.30;;;;;;5085310;28;20066;-48
2021/06/21 01:36:19;;;;;;;6.80;1.50;;;18.00;82.00;;;;;;5094950;28;20482;-46
2021/06/21 01:38:52;;;;;;;6.65;1.10;;;18.20;81.80;;;;;;5094351;28;20048;-50
2021/06/21 01:41:51;;;;;;;3.92;1.10;;;18.50;80.70;;;;;;5094879;28;20020;-53
2021/06/21 01:44:21;;;;;;;2.53;0.93;;;18.70;79.30;;;;;;5065896;28;20030;-52
2021/06/21 01:46:52;;;;;;;4.75;0.93;;;18.70;76.90;;;;;;5094864;28;20115;-55
2021/06/21 01:49:22;;;;;;;3.25;1.38;;;18.70;76.30;;;;;;5085556;28;20397;-48
2021/06/21 01:51:53;;;;;;;5.82;1.50;;;18.60;76.20;;;;;;5089847;28;20044;-50
2021/06/21 01:54:25;;;;;;;4.70;1.27;;;18.50;76.20;;;;;;5091426;28;20746;-48
2021/06/21 01:56:54;;;;;;;5.38;1.20;;;18.50;76.90;;;;;;5091953;28;20272;-51
2021/06/21 01:59:26;;;;;;;2.08;1.08;;;18.30;77.20;;;;;;5088395;28;20483;-50
2021/06/21 02:01:56;;;;;;;4.50;1.70;;;18.20;77.60;;;;;;5093161;28;20107;-54
2021/06/21 02:04:26;;;;;;;2.38;0.90;;;18.10;79.00;;;;;;5092844;28;20039;-55
2021/06/21 02:06:54;;;;;;;2.60;1.02;;;17.90;79.70;;;;;;5092067;28;20036;-49
2021/06/21 02:09:24;;;;;;;3.60;1.30;;;17.80;80.10;;;;;;5088288;28;20069;-49
2021/06/21 02:11:54;;;;;;;4.22;1.35;;;17.70;81.40;;;;;;5092621;28;20032;-51
2021/06/21 02:14:28;;;;;;;2.40;0.80;;;17.60;82.80;;;;;;5092196;28;20171;-53
2021/06/21 02:16:59;;;;;;;4.65;1.42;;;17.50;82.40;;;;;;5092364;28;20024;-52
2021/06/21 02:19:29;;;;;;;2.25;1.13;;;17.50;83.20;;;;;;5086746;28;20043;-47
2021/06/21 02:21:58;;;;;;;2.30;1.00;;;17.40;83.70;;;;;;5092174;28;20024;-54
2021/06/21 02:24:26;;;;;;;3.70;1.15;;;17.40;83.20;;;;;;5092203;28;20502;-48
2021/06/21 02:26:54;;;;;;;3.30;1.40;;;17.30;84.40;;;;;;5091961;28;20059;-50
2021/06/21 02:29:27;;;;;;;3.15;1.10;;;17.30;85.30;;;;;;5086969;28;20032;-46
2021/06/21 02:31:54;;;;;;;1.95;1.00;;;17.20;84.30;;;;;;5091072;28;20040;-48
2021/06/21 02:34:25;;;;;;;1.98;1.00;;;17.20;84.50;;;;;;5091552;28;20531;-51
2021/06/21 02:36:52;;;;;;;4.72;1.40;;;17.20;85.10;;;;;;5091758;28;20031;-51
2021/06/21 02:39:23;;;;;;;2.85;1.20;;;17.20;85.10;;;;;;5085405;28;20516;-49
2021/06/21 02:41:50;;;;;;;2.30;1.30;;;17.10;85.40;;;;;;5090815;28;20028;-50
2021/06/21 02:44:18;;;;;;;4.30;1.05;;;17.10;85.40;;;;;;5091642;28;20039;-49
2021/06/21 02:46:45;;;;;;;2.50;1.20;;;17.10;85.60;;;;;;5091238;28;20044;-51
2021/06/21 02:49:13;;;;;;;3.17;1.33;;;17.10;85.80;;;;;;5085069;28;20064;-51
2021/06/21 02:51:50;;;;;;;3.38;1.27;;;17.10;86.10;;;;;;5091460;28;20406;-52
2021/06/21 02:54:42;;;;;;;3.03;1.23;;;17.10;86.20;;;;;;5091969;28;20020;-48
2021/06/21 02:57:20;;;;;;;2.72;1.20;;;17.10;86.30;;;;;;5091189;28;20032;-50
2021/06/21 02:59:49;;;;;;;2.85;0.98;;;17.10;86.20;;;;;;5085521;28;20047;-55
2021/06/21 03:02:17;;;;;;;3.15;0.90;;;17.10;86.30;;;;;;5090626;28;20024;-55
2021/06/21 03:04:47;;;;;;;4.75;1.52;;;17.10;86.20;;;;;;5091025;28;20043;-52
2021/06/21 03:07:20;;;;;;;3.97;1.10;;;17.10;86.20;;;;;;5089679;28;20036;-52
2021/06/21 03:09:49;;;;;;;2.40;1.00;;;17.10;85.90;;;;;;5084291;28;20496;-47
2021/06/21 03:12:21;;;;;;;4.65;1.50;;;17.10;85.90;;;;;;5090734;28;20109;-49
2021/06/21 03:14:48;;;;;;;;;;;17.10;86.00;;;;;;5090976;28;20114;-48
2021/06/21 03:17:17;;;;;;;2.45;1.02;;;17.10;85.90;;;;;;5091130;28;20260;-51
2021/06/21 03:19:46;;;;;;;1.88;0.93;;;17.00;85.90;;;;;;5084346;28;20028;-52
2021/06/21 03:22:16;;;;;;;2.72;1.23;;;17.00;86.20;;;;;;5091123;28;20039;-48
2021/06/21 03:24:44;;;;;;;4.10;1.17;;;17.00;86.20;;;;;;5089996;28;20020;-53
2021/06/21 03:27:11;;;;;;;4.65;1.30;;;16.90;86.30;;;;;;5090531;28;20040;-52
2021/06/21 03:29:39;;;;;;;4.35;1.30;;;16.90;86.50;;;;;;5085218;28;20445;-50
2021/06/21 03:32:28;;;;;;;6.57;1.45;;;16.90;87.10;;;;;;5090842;28;20122;-48
2021/06/21 03:34:57;;;;;;;5.15;1.92;;;16.90;86.90;;;;;;5089708;28;20019;-54
2021/06/21 03:37:25;;;;;;;2.72;1.30;;;16.80;87.10;;;;;;5090312;28;20032;-50
2021/06/21 03:39:53;;;;;;;3.42;1.40;;;16.80;87.00;;;;;;5085355;28;20035;-49
2021/06/21 03:42:21;;;;;;;3.55;1.30;;;16.80;87.20;;;;;;5090575;28;20122;-53
2021/06/21 03:44:50;;;;;;;5.25;1.42;;;16.80;87.20;;;;;;5089298;28;20028;-52
2021/06/21 03:47:18;;;;;;;3.17;1.27;;;16.80;87.20;;;;;;5089100;28;20046;-51
2021/06/21 03:49:47;;;;;;;5.80;1.33;;;16.80;87.40;;;;;;5086222;28;20039;-51
2021/06/21 03:52:15;;;;;;;8.05;1.20;;;16.80;87.40;;;;;;5090162;28;20040;-50
2021/06/21 03:54:43;;;;;;;9.52;1.35;;;16.80;87.30;;;;;;5090718;28;20016;-51
2021/06/21 03:57:11;;;;;;;4.18;1.15;;;16.80;87.40;;;;;;5090358;28;20493;-53
2021/06/21 03:59:38;;;;;;;3.33;1.38;;;16.80;87.30;;;;;;5084968;28;20036;-55
2021/06/21 04:02:06;;;;;;;3.55;1.27;;;16.80;87.20;;;;;;5089604;28;20402;-50
2021/06/21 04:04:33;;;;;;;3.25;1.13;;;16.80;87.20;;;;;;5089108;28;20475;-50
2021/06/21 04:07:00;;;;;;;1.95;1.25;;;16.80;87.20;;;;;;5090064;28;20028;-49
2021/06/21 04:09:28;;;;;;;3.15;0.98;;;16.80;87.20;;;;;;5084734;28;20079;-52
2021/06/21 04:11:56;;;;;;;5.45;1.70;;;16.80;87.40;;;;;;5089759;28;20101;-54
2021/06/21 04:14:23;;;;;;;3.75;1.10;;;16.80;87.50;;;;;;5090307;28;20027;-49
2021/06/21 04:16:51;;;;;;;2.67;1.38;;;16.80;87.50;;;;;;5090205;28;20381;-52
2021/06/21 04:19:18;;;;;;;3.13;1.30;;;16.80;87.40;;;;;;5085443;28;20065;-49
2021/06/21 04:21:46;;;;;;;2.42;1.00;;;16.80;87.30;;;;;;5088600;28;20024;-49
2021/06/21 04:24:13;;;;;;;3.78;1.13;;;16.90;88.20;;;;;;5090070;28;20046;-52
2021/06/21 04:26:41;;;;;;;4.47;1.65;;;16.90;87.60;;;;;;5089750;28;20060;-51
2021/06/21 04:29:09;;;;;;;5.10;1.50;;;16.90;88.20;;;;;;5085308;28;20529;-44
2021/06/21 04:31:36;;;;;;;4.93;1.30;;;17.00;89.10;;;;;;5088278;28;20185;-48
2021/06/21 04:34:03;;;;;;;7.63;1.73;;;17.10;88.60;;;;;;5090228;28;20478;-55
2021/06/21 04:36:30;;;;;;;5.78;1.65;;;17.40;87.80;;;;;;5090020;28;20036;-50
2021/06/21 04:38:58;;;;;;;1.67;0.98;;;17.50;87.80;;;;;;5091415;28;20106;-50
2021/06/21 04:41:25;;;;;;;2.85;1.05;;;17.80;86.60;;;;;;5091578;28;20031;-49
2021/06/21 04:43:52;;;;;;;4.80;1.45;;;17.90;84.20;;;;;;5090507;28;20046;-52
2021/06/21 04:46:23;;;;;;;1.85;0.90;;;17.90;83.40;;;;;;5092150;28;20378;-54
2021/06/21 04:48:51;;;;;;;2.33;1.13;;;17.90;82.90;;;;;;5091737;28;20030;-51
2021/06/21 04:51:20;;;;;;;5.72;1.58;;;17.90;83.20;;;;;;5091436;28;20039;-55
2021/06/21 04:53:48;;;;;;;4.38;1.38;;;18.00;83.80;;;;;;5091629;28;20028;-49
2021/06/21 04:56:16;;;;;;;3.33;1.88;;;18.10;84.00;;;;;;5091242;28;20099;-51
2021/06/21 04:58:47;;;;;;;3.90;1.00;;;18.20;83.80;;;;;;5091593;28;20540;-49
2021/06/21 05:01:14;;;;;;;5.20;1.35;;;18.30;82.80;;;;;;5091495;28;20400;-51
2021/06/21 05:03:42;;;;;;;3.67;1.40;;;18.50;81.10;;;;;;5091038;28;20020;-51
2021/06/21 05:06:09;;;;;;;6.25;1.00;;;18.40;80.40;;;;;;5090782;28;20107;-51
2021/06/21 05:08:37;;;;;;;5.28;1.23;;;18.50;81.60;;;;;;5091193;28;20407;-47
2021/06/21 05:11:04;;;;;;;5.63;1.27;;;18.60;81.30;;;;;;5091019;28;20103;-49
2021/06/21 05:13:31;;;;;;;2.72;1.10;;;18.60;79.90;;;;;;5091323;28;20028;-55
2021/06/21 05:15:59;;;;;;;1.35;1.00;;;18.70;79.80;;;;;;5091708;28;20334;-51
2021/06/21 05:18:26;;;;;;;3.85;0.95;;;18.80;79.60;;;;;;5091580;28;20024;-54
2021/06/21 05:20:53;;;;;;;5.07;1.38;;;18.70;78.60;;;;;;5091027;28;20482;-57
2021/06/21 05:23:21;;;;;;;4.07;1.48;;;18.70;78.60;;;;;;5080199;28;20039;-53
2021/06/21 05:25:54;;;;;;;4.88;1.80;;;18.60;78.80;;;;;;5090114;28;20071;-55
2021/06/21 05:28:21;;;;;;;9.45;1.50;;;18.60;78.70;;;;;;5090350;28;20056;-50
2021/06/21 05:30:49;;;;;;;2.13;1.40;;;18.50;79.10;;;;;;5093121;28;20608;-51
2021/06/21 05:33:16;;;;;;;5.38;1.83;;;18.40;79.70;;;;;;5089988;28;20027;-55
2021/06/21 05:35:44;;;;;;;2.00;1.00;;;18.30;79.90;;;;;;5092743;28;20389;-49
2021/06/21 05:38:11;;;;;;;6.03;1.20;;;18.30;80.40;;;;;;5088892;28;20016;-52
2021/06/21 05:40:38;;;;;;;4.28;1.17;;;18.30;80.70;;;;;;5090769;28;20093;-52
2021/06/21 05:43:06;;;;;;;6.05;1.50;;;18.20;80.80;;;;;;5089663;28;20085;-48
2021/06/21 05:45:33;;;;;;;2.45;1.00;;;18.10;80.90;;;;;;5091440;28;20053;-52
2021/06/21 05:48:01;;;;;;;3.72;1.25;;;18.00;81.10;;;;;;5090801;28;20023;-53
2021/06/21 05:50:28;;;;;;;4.20;1.42;;;18.00;81.70;;;;;;5092956;28;20086;-48
2021/06/21 05:52:55;;;;;;;5.30;1.40;;;17.90;81.80;;;;;;5089630;28;20035;-54
2021/06/21 05:55:23;;;;;;;4.50;1.88;;;17.80;82.60;;;;;;5091862;28;20055;-54
2021/06/21 05:57:54;;;;;;;4.47;1.52;;;17.80;83.10;;;;;;5092941;28;20074;-51
2021/06/21 06:00:22;;;;;;;3.13;1.00;;;17.70;83.50;;;;;;5092264;28;21428;-47
2021/06/21 06:02:51;;;;;;;3.17;1.35;;;17.60;83.60;;;;;;5091670;28;20501;-46
2021/06/21 06:05:18;;;;;;;5.50;1.55;;;17.60;83.70;;;;;;5087810;28;20024;-51
2021/06/21 06:07:46;;;;;;;3.10;1.05;;;17.50;84.40;;;;;;5091400;28;20028;-52
2021/06/21 06:10:15;;;;;;;2.08;1.00;;;17.50;84.80;;;;;;5090369;28;20020;-53
2021/06/21 06:12:43;;;;;;;2.53;0.90;;;17.40;85.00;;;;;;5088797;28;20471;-57
2021/06/21 06:15:11;;;;;;;5.32;1.20;;;17.40;85.10;;;;;;5093445;28;20077;-50
2021/06/21 06:17:39;;;;;;;3.13;1.00;;;17.30;85.60;;;;;;5094081;28;20073;-51
2021/06/21 06:20:08;;;;;;;3.97;1.30;;;17.30;86.20;;;;;;5094164;28;20067;-52
2021/06/21 06:22:35;;;;;;;3.20;1.80;;;17.20;86.30;;;;;;5093869;28;20016;-50
2021/06/21 06:25:03;;;;;;;5.15;2.38;;;17.20;86.80;;;;;;5093876;28;20416;-57
2021/06/21 06:27:31;;;;;;;7.80;3.65;;;17.10;87.10;;;;;;5092077;28;20051;-55
2021/06/21 06:29:58;;;;;;;8.52;6.82;;;17.10;87.40;;;;;;5083535;28;20502;-57
2021/06/21 06:32:25;;;;;;;7.32;5.95;;;17.00;87.60;;;;;;5089279;28;20062;-52
2021/06/21 06:34:53;;;;;;;8.80;6.40;;;17.00;87.70;;;;;;5089193;28;20020;-49
2021/06/21 06:37:21;;;;;;;7.45;6.05;;;17.00;87.90;;;;;;5070515;28;20453;-51
2021/06/21 06:39:48;;;;;;;8.55;7.65;;;16.90;88.00;;;;;;5088268;28;20020;-57
2021/06/21 06:42:15;;;;;;;10.25;9.25;;;16.90;88.20;;;;;;5087134;28;20028;-51
2021/06/21 06:44:42;;;;;;;11.43;10.27;;;16.90;88.20;;;;;;5092710;28;20374;-52
2021/06/21 06:47:10;;;;;;;13.30;12.00;;;16.80;88.20;;;;;;5090977;28;20018;-51
2021/06/21 06:49:37;;;;;;;14.00;12.57;;;16.80;88.50;;;;;;5093185;28;20032;-52
2021/06/21 06:52:05;;;;;;;18.20;13.60;;;16.80;88.60;;;;;;5092537;28;20130;-47
2021/06/21 06:56:58;;;;;;;14.63;13.27;;;16.80;88.90;;;;;;5092626;28;20024;-52
2021/06/21 06:57:22;;;;;;;13.75;12.50;;;16.70;88.90;;;;;;5074533;28;20048;-51
2021/06/21 06:59:50;;;;;;;16.85;15.27;;;16.70;89.20;;;;;;5092585;28;20491;-55
2021/06/21 07:02:23;;;;;;;16.35;14.85;;;16.70;89.30;;;;;;5080262;28;20035;-47
2021/06/21 07:04:50;;;;;;;18.35;16.65;;;16.70;89.40;;;;;;5092466;28;20481;-47
2021/06/21 07:07:20;;;;;;;18.35;16.85;;;16.70;89.50;;;;;;5092310;28;20059;-48
2021/06/21 07:09:50;;;;;;;20.25;18.27;;;16.60;89.60;;;;;;5092619;28;20024;-49
2021/06/21 07:12:18;;;;;;;19.73;17.52;;;16.60;89.60;;;;;;5092359;28;20074;-48
2021/06/21 07:14:45;;;;;;;18.30;16.33;;;16.60;89.80;;;;;;5090142;28;20012;-53
2021/06/21 07:17:13;;;;;;;16.73;15.13;;;16.60;89.90;;;;;;5092180;28;20038;-51
2021/06/21 07:19:42;;;;;;;17.27;15.68;;;16.60;89.90;;;;;;5080069;28;20052;-55
2021/06/21 07:22:09;;;;;;;15.43;12.68;;;16.60;90.00;;;;;;5087633;28;20035;-52
2021/06/21 07:24:37;;;;;;;15.70;14.25;;;16.50;90.10;;;;;;5091535;28;20020;-48
2021/06/21 07:27:05;;;;;;;16.42;14.93;;;16.50;90.10;;;;;;5089896;28;20048;-50
2021/06/21 07:29:35;;;;;;;18.00;15.82;;;16.50;90.10;;;;;;5089536;28;20486;-49
2021/06/21 07:32:03;;;;;;;17.33;15.63;;;16.50;90.10;;;;;;5090179;28;20043;-52
2021/06/21 07:34:32;;;;;;;19.67;17.67;;;16.50;90.10;;;;;;5090968;28;20381;-47
2021/06/21 07:37:00;;;;;;;18.85;17.13;;;16.50;90.10;;;;;;5090842;28;20107;-49
2021/06/21 07:39:27;;;;;;;16.55;12.38;;;16.50;90.10;;;;;;5091158;28;20075;-54
2021/06/21 07:41:55;;;;;;;20.83;18.70;;;16.40;90.20;;;;;;5092551;28;20089;-54
2021/06/21 07:44:23;;;;;;;17.60;15.90;;;16.50;90.30;;;;;;5092470;28;20032;-54
2021/06/21 07:46:50;;;;;;;14.10;6.05;;;16.30;90.50;;;;;;5092123;28;20020;-52
2021/06/21 07:49:18;;;;;;;18.23;16.25;;;16.20;90.70;;;;;;5092134;28;20048;-53
2021/06/21 07:51:45;;;;;;;10.45;5.15;;;16.00;90.40;;;;;;5091945;28;20036;-50
2021/06/21 07:54:14;;;;;;;10.80;4.60;;;16.00;90.50;;;;;;5092182;28;20024;-49
2021/06/21 07:56:42;;;;;;;35.22;31.45;;;15.90;90.80;;;;;;5091939;28;20085;-52
2021/06/21 07:59:09;;;;;;;28.02;22.17;;;16.00;90.80;;;;;;5092269;28;20035;-55
2021/06/21 08:01:37;;;;;;;16.25;10.32;;;16.10;90.60;;;;;;5092295;28;20060;-52
2021/06/21 08:04:06;;;;;;;16.17;14.48;;;16.10;90.70;;;;;;5091516;28;20031;-48
2021/06/21 08:06:36;;;;;;;26.42;14.20;;;16.10;90.50;;;;;;5089383;28;20024;-52
2021/06/21 08:09:04;;;;;;;23.13;20.35;;;16.00;90.70;;;;;;5091493;28;20028;-51
2021/06/21 08:11:32;;;;;;;14.50;8.70;;;16.00;91.00;;;;;;5092138;28;20082;-51
2021/06/21 08:14:00;;;;;;;16.70;9.50;;;15.90;90.60;;;;;;5091719;28;20027;-49
2021/06/21 08:16:29;;;;;;;17.80;7.10;;;15.90;91.00;;;;;;5091773;28;20074;-54
2021/06/21 08:18:56;;;;;;;13.20;6.13;;;15.80;90.70;;;;;;5091200;28;20028;-50
2021/06/21 08:21:24;;;;;;;19.83;14.65;;;15.90;90.80;;;;;;5091674;28;20050;-47
2021/06/21 08:23:53;;;;;;;12.77;6.43;;;15.90;90.90;;;;;;5090456;28;20073;-51
2021/06/21 08:26:20;;;;;;;18.48;10.00;;;15.90;90.70;;;;;;5090559;28;20063;-44
2021/06/21 08:28:48;;;;;;;16.80;14.63;;;15.90;91.10;;;;;;5091302;28;20096;-49
2021/06/21 08:31:15;;;;;;;17.40;14.35;;;16.00;91.50;;;;;;5091600;28;20043;-49
2021/06/21 08:33:42;;;;;;;15.68;8.25;;;15.90;90.90;;;;;;5092161;28;20036;-52
2021/06/21 08:36:10;;;;;;;15.18;9.77;;;15.80;90.70;;;;;;5091529;28;20086;-51
2021/06/21 08:38:37;;;;;;;33.88;21.45;;;15.70;91.50;;;;;;5079731;28;20024;-53
2021/06/21 08:41:08;;;;;;;23.33;13.55;;;15.80;91.90;;;;;;5088465;28;20039;-55
2021/06/21 08:43:40;;;;;;;42.88;38.47;;;15.80;91.50;;;;;;5088542;28;20110;-48
2021/06/21 08:46:07;;;;;;;32.22;25.13;;;15.90;91.80;;;;;;5088406;28;20074;-55
2021/06/21 08:48:35;;;;;;;43.17;38.50;;;15.90;92.50;;;;;;5086062;28;20460;-54
2021/06/21 08:51:03;;;;;;;39.28;34.28;;;15.80;92.20;;;;;;5087073;28;20044;-52
2021/06/21 08:53:30;;;;;;;32.63;27.17;;;15.80;91.60;;;;;;5088562;28;20497;-51
2021/06/21 08:55:58;;;;;;;22.20;16.73;;;15.90;92.20;;;;;;5088716;28;20026;-53
2021/06/21 08:58:25;;;;;;;33.72;30.10;;;15.80;91.80;;;;;;5084474;28;20035;-54
2021/06/21 09:00:52;;;;;;;27.67;19.75;;;16.00;92.80;;;;;;5088453;28;20059;-56
2021/06/21 09:03:20;;;;;;;26.38;17.45;;;15.70;92.30;;;;;;5088837;28;20032;-55
2021/06/21 09:05:47;;;;;;;12.80;5.78;;;15.80;91.20;;;;;;5092875;28;20107;-54
2021/06/21 09:08:15;;;;;;;27.17;12.15;;;15.80;90.70;;;;;;5095852;28;20024;-52
2021/06/21 09:10:42;;;;;;;25.25;13.57;;;15.70;92.00;;;;;;5094190;28;20583;-53
2021/06/21 09:13:15;;;;;;;27.83;24.63;;;15.60;92.20;;;;;;5094958;28;20125;-50
2021/06/21 09:15:53;;;;;;;24.50;15.13;;;15.80;93.70;;;;;;5095662;28;20021;-53
2021/06/21 09:18:39;;;;;;;34.13;30.77;;;15.50;92.40;;;;;;5095407;28;20024;-54
2021/06/21 09:21:27;;;;;;;42.00;37.72;;;15.60;92.50;;;;;;5094945;28;20044;-53
2021/06/21 09:23:58;;;;;;;66.60;52.10;;;15.70;92.10;;;;;;5095317;28;20028;-54
2021/06/21 09:26:31;;;;;;;32.58;21.52;;;15.70;92.00;;;;;;5095269;28;20047;-53
2021/06/21 09:29:00;;;;;;;29.05;12.70;;;15.80;91.60;;;;;;5095318;28;20193;-54
2021/06/21 09:31:29;;;;;;;22.67;15.65;;;15.80;91.40;;;;;;5094773;28;20394;-53
2021/06/21 09:34:17;;;;;;;28.88;23.13;;;15.90;92.40;;;;;;5093880;28;20465;-56
2021/06/21 09:36:44;;;;;;;36.45;18.83;;;15.80;93.10;;;;;;5083538;28;20028;-55
2021/06/21 09:39:19;;;;;;;19.88;10.20;;;15.90;92.90;;;;;;5094946;28;20032;-56
2021/06/21 09:42:09;;;;;;;27.15;14.98;;;15.80;91.40;;;;;;5094738;28;20115;-56
2021/06/21 09:44:45;;;;;;;18.20;11.00;;;15.70;93.20;;;;;;5086801;28;20028;-55
2021/06/21 09:47:26;;;;;;;24.10;13.93;;;15.70;90.40;;;;;;5093796;28;20110;-52
2021/06/21 09:50:08;;;;;;;25.63;14.68;;;15.70;92.20;;;;;;5094496;28;20035;-51
2021/06/21 09:52:46;;;;;;;15.95;7.03;;;15.70;90.40;;;;;;5094907;28;20119;-53
2021/06/21 09:55:29;;;;;;;23.70;8.52;;;15.60;90.30;;;;;;5094035;28;20535;-54
2021/06/21 09:58:10;;;;;;;27.45;12.13;;;15.50;92.70;;;;;;5083483;28;20424;-53
2021/06/21 10:00:44;;;;;;;23.40;5.82;;;15.60;91.90;;;;;;5094609;28;20055;-56
2021/06/21 10:03:20;;;;;;;24.27;12.75;;;15.20;89.70;;;;;;5094047;28;20116;-53
2021/06/21 10:06:05;;;;;;;26.90;12.77;;;15.40;91.90;;;;;;5094588;28;20504;-57
2021/06/21 10:08:54;;;;;;;33.20;14.02;;;15.40;91.10;;;;;;5084313;28;20066;-56
2021/06/21 10:11:43;;;;;;;20.88;10.15;;;15.40;92.80;;;;;;5084099;28;20032;-51
2021/06/21 10:14:17;;;;;;;16.77;8.48;;;15.40;91.50;;;;;;5092980;28;20108;-58
2021/06/21 10:16:47;;;;;;;27.15;10.02;;;15.60;91.30;;;;;;5094740;28;20023;-53
2021/06/21 10:19:15;;;;;;;26.23;12.02;;;15.60;92.00;;;;;;5094339;28;20038;-58
2021/06/21 10:21:47;;;;;;;25.92;10.40;;;15.60;93.10;;;;;;5082075;28;20079;-54
2021/06/21 10:24:15;;;;;;;20.15;8.55;;;15.70;92.90;;;;;;5094288;28;20052;-51
2021/06/21 10:26:49;;;;;;;24.95;12.25;;;15.70;92.10;;;;;;5092649;28;20082;-50
2021/06/21 10:29:20;;;;;;;24.48;11.43;;;15.80;94.60;;;;;;5094380;28;20116;-55
2021/06/21 10:31:48;;;;;;;35.03;11.18;;;16.00;94.40;;;;;;5093698;28;20070;-50
2021/06/21 10:34:19;;;;;;;29.20;11.50;;;16.00;93.80;;;;;;5093987;28;20026;-51
2021/06/21 10:36:52;;;;;;;21.40;9.20;;;16.10;94.30;;;;;;5094363;28;20138;-52
2021/06/21 10:39:33;;;;;;;22.48;8.88;;;16.10;93.50;;;;;;5093126;28;20024;-54
2021/06/21 10:42:06;;;;;;;30.83;8.27;;;16.10;93.80;;;;;;5092328;28;20378;-55
2021/06/21 10:44:45;;;;;;;25.50;7.03;;;16.00;93.40;;;;;;5083542;28;20064;-53
2021/06/21 10:47:28;;;;;;;20.88;7.22;;;16.00;92.70;;;;;;5086265;28;20032;-55
2021/06/21 10:49:55;;;;;;;17.40;7.70;;;16.00;92.00;;;;;;5087796;28;20082;-51
2021/06/21 10:52:52;;;;;;;23.45;8.25;;;16.00;92.70;;;;;;5090646;28;20046;-52
2021/06/21 10:55:38;;;;;;;12.48;6.38;;;16.00;92.60;;;;;;5088836;28;20081;-53
2021/06/21 10:58:21;;;;;;;12.10;7.47;;;15.90;92.60;;;;;;5090183;28;20031;-53
2021/06/21 11:00:50;;;;;;;18.00;7.60;;;15.90;92.30;;;;;;5088102;28;20032;-50
2021/06/21 11:03:27;;;;;;;15.98;7.70;;;15.90;92.20;;;;;;5091022;28;20055;-53
2021/06/21 11:05:58;;;;;;;22.08;8.90;;;15.90;92.30;;;;;;5086657;28;20479;-55
2021/06/21 11:08:28;;;;;;;21.43;7.70;;;15.90;92.20;;;;;;5089779;28;20062;-53
2021/06/21 11:10:58;;;;;;;16.00;7.53;;;15.90;92.20;;;;;;5090079;28;20743;-53
2021/06/21 11:13:34;;;;;;;20.42;8.15;;;15.90;92.20;;;;;;5089229;28;20502;-55
2021/06/21 11:16:24;;;;;;;13.13;7.72;;;15.90;92.10;;;;;;5086630;28;20036;-56
2021/06/21 11:19:20;;;;;;;12.55;7.88;;;15.90;92.10;;;;;;5089561;28;20482;-49
2021/06/21 11:21:54;;;;;;;13.55;7.45;;;15.80;92.10;;;;;;5087969;28;20039;-52
2021/06/21 11:24:39;;;;;;;16.42;8.10;;;15.80;92.10;;;;;;5089672;28;20021;-53
2021/06/21 11:27:14;;;;;;;20.58;7.78;;;15.80;92.00;;;;;;5085941;28;20052;-49
2021/06/21 11:29:44;;;;;;;16.20;7.40;;;15.80;92.20;;;;;;5089972;28;20028;-52
2021/06/21 11:32:13;;;;;;;15.15;7.68;;;15.80;91.90;;;;;;5089389;28;20036;-46
2021/06/21 11:35:01;;;;;;;15.05;7.50;;;15.80;91.80;;;;;;5089268;28;20048;-50
2021/06/21 11:37:37;;;;;;;13.57;7.20;;;15.80;91.80;;;;;;5086867;28;20032;-52
2021/06/21 11:40:21;;;;;;;12.85;7.78;;;15.80;91.80;;;;;;5089429;28;20016;-53
2021/06/21 11:43:03;;;;;;;16.13;6.75;;;15.70;91.70;;;;;;5089955;28;20028;-48
2021/06/21 11:45:50;;;;;;;16.85;7.25;;;15.80;91.60;;;;;;5084777;28;20097;-53
2021/06/21 11:48:37;;;;;;;11.52;6.80;;;15.70;91.60;;;;;;5089140;28;20490;-53
2021/06/21 11:51:12;;;;;;;12.85;6.72;;;15.70;91.50;;;;;;5088696;28;20030;-53
2021/06/21 11:53:48;;;;;;;10.43;6.82;;;15.70;91.40;;;;;;5089616;28;20040;-53
2021/06/21 11:56:26;;;;;;;10.98;7.10;;;15.60;91.30;;;;;;5085558;28;20038;-49
2021/06/21 11:58:56;;;;;;;13.27;6.35;;;15.60;91.30;;;;;;5087274;28;20178;-49
2021/06/21 12:01:25;;;;;;;10.55;6.45;;;15.60;91.20;;;;;;5089355;28;20051;-46
2021/06/21 12:04:10;;;;;;;12.95;6.53;;;15.60;91.20;;;;;;5088270;28;20032;-46
2021/06/21 12:06:38;;;;;;;12.68;6.45;;;15.60;91.20;;;;;;5085616;28;20378;-47
2021/06/21 12:09:05;;;;;;;12.13;6.63;;;15.60;91.10;;;;;;5088493;28;20023;-46
2021/06/21 12:11:32;;;;;;;8.50;5.95;;;15.60;91.10;;;;;;5089324;28;20090;-49
2021/06/21 12:14:02;;;;;;;12.98;5.82;;;15.60;91.10;;;;;;5089059;28;20012;-49
2021/06/21 12:16:32;;;;;;;10.38;6.13;;;15.50;91.30;;;;;;5085851;28;20093;-46
2021/06/21 12:19:04;;;;;;;11.82;5.55;;;15.50;91.00;;;;;;5088638;28;20035;-51
2021/06/21 12:21:40;;;;;;;10.32;5.93;;;15.50;91.00;;;;;;5088588;28;20096;-47
2021/06/21 12:24:20;;;;;;;10.32;6.03;;;15.50;91.00;;;;;;5088850;28;20058;-50
2021/06/21 12:26:51;;;;;;;11.50;6.28;;;15.40;90.90;;;;;;5083721;28;20044;-52
2021/06/21 12:29:20;;;;;;;7.88;5.43;;;15.40;90.90;;;;;;5089483;28;20020;-50
2021/06/21 12:32:06;;;;;;;11.18;6.00;;;15.40;90.90;;;;;;5088317;28;20028;-52
2021/06/21 12:34:51;;;;;;;9.93;5.68;;;15.40;90.80;;;;;;5089270;28;20471;-51
2021/06/21 12:37:36;;;;;;;9.52;5.85;;;15.40;90.80;;;;;;5088161;28;20857;-51
2021/06/21 12:40:22;;;;;;;9.93;5.55;;;15.30;90.80;;;;;;5092668;28;20544;-49
2021/06/21 12:42:50;;;;;;;9.13;5.72;;;15.30;90.80;;;;;;5091330;28;20028;-54
2021/06/21 12:45:20;;;;;;;11.57;5.72;;;15.30;90.70;;;;;;5089516;28;20024;-51
2021/06/21 12:47:48;;;;;;;9.93;5.32;;;15.20;90.70;;;;;;5092299;28;20085;-53
2021/06/21 12:50:17;;;;;;;7.32;5.63;;;15.20;90.70;;;;;;5092807;28;20035;-45
2021/06/21 12:52:47;;;;;;;9.73;4.65;;;15.20;90.70;;;;;;5092726;28;20031;-47
2021/06/21 12:55:17;;;;;;;8.70;5.35;;;15.20;90.80;;;;;;5089711;28;20398;-47
2021/06/21 12:57:46;;;;;;;9.25;5.05;;;15.10;90.80;;;;;;5092003;28;20043;-46
2021/06/21 13:00:15;;;;;;;7.85;5.50;;;15.10;90.50;;;;;;5093060;28;20032;-51